createdAt,value
2023-04-16T00:02:22.524Z,6.97
2023-04-16T00:04:50.321Z,8.27
2023-04-16T00:07:17.449Z,9.18
2023-04-16T00:09:45.091Z,7.68
2023-04-16T00:12:12.421Z,11.02
2023-04-16T00:14:40.152Z,8.75
2023-04-16T00:17:07.522Z,9.02
2023-04-16T00:19:35.779Z,8.25
2023-04-16T00:22:02.891Z,8.60
2023-04-16T00:24:30.569Z,10.85
2023-04-16T00:26:58.227Z,8.05
2023-04-16T00:29:28.764Z,9.45
2023-04-16T00:31:56.134Z,10.52
2023-04-16T00:34:24.738Z,10.32
2023-04-16T00:36:52.217Z,9.75
2023-04-16T00:39:19.820Z,10.85
2023-04-16T00:41:47.429Z,15.50
2023-04-16T00:44:15.331Z,11.15
2023-04-16T00:46:43.090Z,12.15
2023-04-16T00:49:11.115Z,11.60
2023-04-16T00:51:38.511Z,12.63
2023-04-16T00:54:06.992Z,12.20
2023-04-16T00:56:35.723Z,10.93
2023-04-16T00:59:03.224Z,15.90
2023-04-16T01:01:30.747Z,13.82
2023-04-16T01:03:58.402Z,13.23
2023-04-16T01:06:28.265Z,13.48
2023-04-16T01:08:56.036Z,14.43
2023-04-16T01:11:23.349Z,12.55
2023-04-16T01:13:51.339Z,14.30
2023-04-16T01:16:19.300Z,13.30
2023-04-16T01:18:47.509Z,14.75
2023-04-16T01:21:14.801Z,15.25
2023-04-16T01:23:42.770Z,16.85
2023-04-16T01:26:10.151Z,14.05
2023-04-16T01:28:37.679Z,13.02
2023-04-16T01:31:05.312Z,13.52
2023-04-16T01:33:46.376Z,16.85
2023-04-16T01:36:13.759Z,18.73
2023-04-16T01:38:41.644Z,18.17
2023-04-16T01:41:08.844Z,17.00
2023-04-16T01:43:38.478Z,16.15
2023-04-16T01:46:24.325Z,17.92
2023-04-16T01:48:54.840Z,17.70
2023-04-16T01:51:22.453Z,15.90
2023-04-16T01:53:51.065Z,21.83
2023-04-16T01:56:18.757Z,16.70
2023-04-16T01:58:47.640Z,15.93
2023-04-16T02:01:17.273Z,19.58
2023-04-16T02:03:46.719Z,15.82
2023-04-16T02:06:15.694Z,19.17
2023-04-16T02:08:43.517Z,21.90
2023-04-16T02:11:11.225Z,22.20
2023-04-16T02:13:39.343Z,19.48
2023-04-16T02:16:07.089Z,19.92
2023-04-16T02:18:44.273Z,16.95
2023-04-16T02:21:14.103Z,19.42
2023-04-16T02:23:42.393Z,17.48
2023-04-16T02:26:10.000Z,17.52
2023-04-16T02:28:38.684Z,18.40
2023-04-16T02:31:08.701Z,22.27
2023-04-16T02:36:11.379Z,18.55
2023-04-16T02:38:39.046Z,17.92
2023-04-16T02:41:07.640Z,17.15
2023-04-16T02:43:35.514Z,21.27
2023-04-16T02:46:03.084Z,16.58
2023-04-16T02:48:30.856Z,18.20
2023-04-16T02:50:58.388Z,15.45
2023-04-16T02:53:26.034Z,17.92
2023-04-16T02:55:54.473Z,14.23
2023-04-16T02:58:24.177Z,14.30
2023-04-16T03:00:52.692Z,15.45
2023-04-16T03:03:21.539Z,16.92
2023-04-16T03:05:49.033Z,17.55
2023-04-16T03:08:17.312Z,17.20
2023-04-16T03:10:44.744Z,18.38
2023-04-16T03:13:12.618Z,21.52
2023-04-16T03:15:40.151Z,18.58
2023-04-16T03:18:07.814Z,22.23
2023-04-16T03:20:34.932Z,19.48
2023-04-16T03:23:02.555Z,19.83
2023-04-16T03:25:29.863Z,22.60
2023-04-16T03:27:57.761Z,24.17
2023-04-16T03:30:25.520Z,21.25
2023-04-16T03:32:53.286Z,22.38
2023-04-16T03:35:21.495Z,23.08
2023-04-16T03:37:50.452Z,21.98
2023-04-16T03:40:18.417Z,21.92
2023-04-16T03:42:46.371Z,18.88
2023-04-16T03:45:13.777Z,18.88
2023-04-16T03:47:42.246Z,19.30
2023-04-16T03:50:11.713Z,20.45
2023-04-16T03:52:40.134Z,17.65
2023-04-16T03:55:08.008Z,21.45
2023-04-16T03:57:35.773Z,19.08
2023-04-16T04:00:09.691Z,18.38
2023-04-16T04:02:54.476Z,18.63
2023-04-16T04:05:23.030Z,19.33
2023-04-16T04:07:51.117Z,20.05
2023-04-16T04:10:18.513Z,18.90
2023-04-16T04:12:46.820Z,17.90
2023-04-16T04:15:14.395Z,20.48
2023-04-16T04:17:43.695Z,21.48
2023-04-16T04:20:11.840Z,15.85
2023-04-16T04:22:39.728Z,19.40
2023-04-16T04:25:08.793Z,17.35
2023-04-16T04:27:36.683Z,18.30
2023-04-16T04:30:07.443Z,19.42
2023-04-16T04:32:38.194Z,17.95
2023-04-16T04:35:05.985Z,28.63
2023-04-16T04:37:33.819Z,21.27
2023-04-16T04:40:08.958Z,17.67
2023-04-16T04:42:37.968Z,21.00
2023-04-16T04:45:06.192Z,22.90
2023-04-16T04:47:35.107Z,29.38
2023-04-16T04:50:02.444Z,23.58
2023-04-16T04:52:31.659Z,20.27
2023-04-16T04:54:59.244Z,18.20
2023-04-16T04:57:27.286Z,19.90
2023-04-16T04:59:55.363Z,18.10
2023-04-16T05:02:23.481Z,17.98
2023-04-16T05:04:50.986Z,18.95
2023-04-16T05:07:18.694Z,18.38
2023-04-16T05:09:45.902Z,19.83
2023-04-16T05:12:13.561Z,20.05
2023-04-16T05:14:40.970Z,19.45
2023-04-16T05:17:08.592Z,22.33
2023-04-16T05:19:35.904Z,18.90
2023-04-16T05:22:03.511Z,21.33
2023-04-16T05:24:30.977Z,21.88
2023-04-16T05:26:58.518Z,22.38
2023-04-16T05:29:26.166Z,21.88
2023-04-16T05:31:53.776Z,16.38
2023-04-16T05:34:21.113Z,15.40
2023-04-16T05:36:48.606Z,17.75
2023-04-16T05:39:16.995Z,18.08
2023-04-16T05:41:44.504Z,17.08
2023-04-16T05:44:11.757Z,17.88
2023-04-16T05:46:39.390Z,21.65
2023-04-16T05:49:06.911Z,18.92
2023-04-16T05:51:34.731Z,18.95
2023-04-16T05:54:01.990Z,21.98
2023-04-16T05:56:29.669Z,20.80
2023-04-16T05:58:57.009Z,21.75
2023-04-16T06:01:25.625Z,17.98
2023-04-16T06:03:52.868Z,21.08
2023-04-16T06:06:20.411Z,20.13
2023-04-16T06:08:47.727Z,17.77
2023-04-16T06:11:15.752Z,17.15
2023-04-16T06:13:43.308Z,17.05
2023-04-16T06:16:10.908Z,19.35
2023-04-16T06:18:38.136Z,19.38
2023-04-16T06:21:05.901Z,18.35
2023-04-16T06:23:33.238Z,18.33
2023-04-16T06:26:00.912Z,17.80
2023-04-16T06:28:28.121Z,19.95
2023-04-16T06:30:56.029Z,19.42
2023-04-16T06:33:23.493Z,22.58
2023-04-16T06:35:50.951Z,18.27
2023-04-16T06:38:18.837Z,18.33
2023-04-16T06:40:46.474Z,17.48
2023-04-16T06:43:15.768Z,19.23
2023-04-16T06:45:43.594Z,19.73
2023-04-16T06:48:10.849Z,18.10
2023-04-16T06:50:38.778Z,18.13
2023-04-16T06:53:07.264Z,17.13
2023-04-16T06:55:34.949Z,16.75
2023-04-16T06:58:02.300Z,19.70
2023-04-16T07:00:29.989Z,18.77
2023-04-16T07:02:58.709Z,21.00
2023-04-16T07:05:26.438Z,18.08
2023-04-16T07:07:53.656Z,19.48
2023-04-16T07:10:21.444Z,17.42
2023-04-16T07:12:48.770Z,19.67
2023-04-16T07:15:16.404Z,18.60
2023-04-16T07:17:43.681Z,17.73
2023-04-16T07:20:11.485Z,19.77
2023-04-16T07:22:38.791Z,18.80
2023-04-16T07:25:06.612Z,18.67
2023-04-16T07:27:33.975Z,21.77
2023-04-16T07:30:01.868Z,19.98
2023-04-16T07:32:29.230Z,19.67
2023-04-16T07:34:57.248Z,19.40
2023-04-16T07:37:24.411Z,18.40
2023-04-16T07:39:53.135Z,19.50
2023-04-16T07:42:20.915Z,16.00
2023-04-16T07:44:48.367Z,21.85
2023-04-16T07:47:15.587Z,17.80
2023-04-16T07:49:43.236Z,18.20
2023-04-16T07:52:10.722Z,18.45
2023-04-16T07:54:38.093Z,18.75
2023-04-16T07:57:05.212Z,19.40
2023-04-16T07:59:32.738Z,18.08
2023-04-16T08:02:00.398Z,18.45
2023-04-16T08:04:28.724Z,20.08
2023-04-16T08:06:56.392Z,14.45
2023-04-16T08:09:27.573Z,17.30
2023-04-16T08:11:54.930Z,17.95
2023-04-16T08:14:22.848Z,14.23
2023-04-16T08:16:50.348Z,19.23
2023-04-16T08:19:18.028Z,15.55
2023-04-16T08:21:45.782Z,18.30
2023-04-16T08:24:13.939Z,13.65
2023-04-16T08:26:41.763Z,14.95
2023-04-16T08:29:09.754Z,15.45
2023-04-16T08:31:37.836Z,15.13
2023-04-16T08:34:05.649Z,16.88
2023-04-16T08:36:32.918Z,17.13
2023-04-16T08:39:00.653Z,18.40
2023-04-16T08:41:29.950Z,15.55
2023-04-16T08:44:10.382Z,15.98
2023-04-16T08:46:38.679Z,15.93
2023-04-16T08:49:08.166Z,16.02
2023-04-16T08:51:36.316Z,16.83
2023-04-16T08:54:06.025Z,20.25
2023-04-16T08:56:36.719Z,15.07
2023-04-16T08:59:05.833Z,14.32
2023-04-16T09:01:34.309Z,15.63
2023-04-16T09:04:03.686Z,15.40
2023-04-16T09:06:31.721Z,12.27
2023-04-16T09:09:00.142Z,13.73
2023-04-16T09:11:27.748Z,15.30
2023-04-16T09:13:55.778Z,11.98
2023-04-16T09:16:23.692Z,12.20
2023-04-16T09:18:52.414Z,12.02
2023-04-16T09:21:22.009Z,13.73
2023-04-16T09:23:53.644Z,15.50
2023-04-16T09:26:22.061Z,16.35
2023-04-16T09:28:51.643Z,13.07
2023-04-16T09:31:20.068Z,12.82
2023-04-16T09:34:08.766Z,13.90
2023-04-16T09:36:37.011Z,13.15
2023-04-16T09:39:04.956Z,12.05
2023-04-16T09:41:36.231Z,12.40
2023-04-16T09:44:05.419Z,12.52
2023-04-16T09:46:37.635Z,14.27
2023-04-16T09:49:18.812Z,11.50
2023-04-16T09:51:48.227Z,13.35
2023-04-16T09:54:16.440Z,10.73
2023-04-16T09:56:45.313Z,11.20
2023-04-16T09:59:22.921Z,13.20
2023-04-16T10:01:50.789Z,12.90
2023-04-16T10:04:18.918Z,11.68
2023-04-16T10:07:05.614Z,10.57
2023-04-16T10:09:37.961Z,10.45
2023-04-16T10:12:06.963Z,12.02
2023-04-16T10:14:35.192Z,13.32
2023-04-16T10:17:03.839Z,10.48
2023-04-16T10:19:32.498Z,10.73
2023-04-16T10:22:00.176Z,11.80
2023-04-16T10:24:29.741Z,9.85
2023-04-16T10:26:57.830Z,11.60
2023-04-16T10:29:30.420Z,10.82
2023-04-16T10:31:58.326Z,11.48
2023-04-16T10:34:27.023Z,10.88
2023-04-16T10:36:55.098Z,10.02
2023-04-16T10:39:24.947Z,11.80
2023-04-16T10:42:07.727Z,12.45
2023-04-16T10:44:35.653Z,13.52
2023-04-16T10:47:03.361Z,9.75
2023-04-16T10:49:31.752Z,13.35
2023-04-16T10:52:19.320Z,11.00
2023-04-16T10:54:48.519Z,11.38
2023-04-16T10:57:18.059Z,10.43
2023-04-16T10:59:46.405Z,12.20
2023-04-16T11:02:15.570Z,11.85
2023-04-16T11:04:47.757Z,12.13
2023-04-16T11:07:20.758Z,10.07
2023-04-16T11:10:00.184Z,10.13
2023-04-16T11:12:38.747Z,11.82
2023-04-16T11:15:08.576Z,12.13
2023-04-16T11:17:44.726Z,14.15
2023-04-16T11:20:19.916Z,11.70
2023-04-16T11:22:51.926Z,10.73
2023-04-16T11:25:21.973Z,12.57
2023-04-16T11:27:50.315Z,12.00
2023-04-16T11:30:19.091Z,10.73
2023-04-16T11:32:46.481Z,86.40
2023-04-16T11:35:19.267Z,18.33
2023-04-16T11:37:48.507Z,11.63
2023-04-16T11:40:16.234Z,8.93
2023-04-16T11:42:44.552Z,10.05
2023-04-16T11:45:12.826Z,11.20
2023-04-16T11:47:59.319Z,10.27
2023-04-16T11:50:28.759Z,10.90
2023-04-16T11:52:58.032Z,10.38
2023-04-16T11:55:25.851Z,9.82
2023-04-16T11:57:53.824Z,9.45
2023-04-16T12:00:24.537Z,12.32
2023-04-16T12:02:54.955Z,12.18
2023-04-16T12:05:31.237Z,12.70
2023-04-16T12:07:59.981Z,11.18
2023-04-16T12:10:28.731Z,9.98
2023-04-16T12:13:17.397Z,12.15
2023-04-16T12:15:50.337Z,11.60
2023-04-16T12:18:20.450Z,12.77
2023-04-16T12:20:49.215Z,13.02
2023-04-16T12:23:26.887Z,13.68
2023-04-16T12:25:55.766Z,10.48
2023-04-16T12:28:31.849Z,10.40
2023-04-16T12:31:00.781Z,11.02
2023-04-16T12:33:29.418Z,10.93
2023-04-16T12:35:58.282Z,12.27
2023-04-16T12:38:27.532Z,12.93
2023-04-16T12:40:57.471Z,11.52
2023-04-16T12:43:26.109Z,11.50
2023-04-16T12:45:54.532Z,14.82
2023-04-16T12:48:22.248Z,9.68
2023-04-16T12:50:50.014Z,9.60
2023-04-16T12:53:17.273Z,13.23
2023-04-16T12:55:45.631Z,9.93
2023-04-16T12:58:12.917Z,9.00
2023-04-16T13:00:40.904Z,8.80
2023-04-16T13:03:08.548Z,8.50
2023-04-16T13:05:36.269Z,9.80
2023-04-16T13:08:03.681Z,10.63
2023-04-16T13:10:31.236Z,13.35
2023-04-16T13:12:58.470Z,10.73
2023-04-16T13:15:26.076Z,10.13
2023-04-16T13:17:53.381Z,14.73
2023-04-16T13:20:23.144Z,10.57
2023-04-16T13:22:51.871Z,10.93
2023-04-16T13:25:19.479Z,10.90
2023-04-16T13:27:46.782Z,12.10
2023-04-16T13:30:14.565Z,8.93
2023-04-16T13:32:42.115Z,8.73
2023-04-16T13:35:10.956Z,10.55
2023-04-16T13:37:38.266Z,11.73
2023-04-16T13:40:06.954Z,11.38
2023-04-16T13:42:34.251Z,9.88
2023-04-16T13:45:02.556Z,13.02
2023-04-16T13:47:30.325Z,10.05
2023-04-16T13:49:58.405Z,9.57
2023-04-16T13:52:25.901Z,9.98
2023-04-16T13:54:53.555Z,9.23
2023-04-16T13:57:21.167Z,9.70
2023-04-16T13:59:48.958Z,10.02
2023-04-16T14:02:16.640Z,8.65
2023-04-16T14:04:44.446Z,10.27
2023-04-16T14:07:12.065Z,9.23
2023-04-16T14:09:39.582Z,10.55
2023-04-16T14:12:07.212Z,9.98
2023-04-16T14:14:35.399Z,10.43
2023-04-16T14:17:03.602Z,10.05
2023-04-16T14:19:31.509Z,10.02
2023-04-16T14:21:58.898Z,14.13
2023-04-16T14:24:26.879Z,10.27
2023-04-16T14:26:54.512Z,10.32
2023-04-16T14:29:22.272Z,9.77
2023-04-16T14:31:50.516Z,9.38
2023-04-16T14:34:18.223Z,15.05
2023-04-16T14:36:45.560Z,11.15
2023-04-16T14:39:13.314Z,10.10
2023-04-16T14:41:40.667Z,10.63
2023-04-16T14:44:08.485Z,9.90
2023-04-16T14:46:36.350Z,9.48
2023-04-16T14:49:05.049Z,9.95
2023-04-16T14:51:32.716Z,11.85
2023-04-16T14:54:00.462Z,13.15
2023-04-16T14:56:27.773Z,11.93
2023-04-16T14:58:55.325Z,8.73
2023-04-16T15:01:22.748Z,9.68
2023-04-16T15:03:50.879Z,9.57
2023-04-16T15:06:19.038Z,9.80
2023-04-16T15:08:46.673Z,10.73
2023-04-16T15:11:14.296Z,9.60
2023-04-16T15:13:42.163Z,10.73
2023-04-16T15:16:09.614Z,10.13
2023-04-16T15:18:37.349Z,11.07
2023-04-16T15:21:04.944Z,9.32
2023-04-16T15:23:32.794Z,11.00
2023-04-16T15:26:00.133Z,11.18
2023-04-16T15:28:28.287Z,9.57
2023-04-16T15:30:56.071Z,11.73
2023-04-16T15:33:24.043Z,10.55
2023-04-16T15:35:51.795Z,9.30
2023-04-16T15:38:21.566Z,10.82
2023-04-16T15:40:49.021Z,10.52
2023-04-16T15:43:16.908Z,11.32
2023-04-16T15:45:44.340Z,10.38
2023-04-16T15:48:12.056Z,11.18
2023-04-16T15:50:39.826Z,13.05
2023-04-16T15:53:07.408Z,11.38
2023-04-16T15:55:35.877Z,13.00
2023-04-16T15:58:03.646Z,12.57
2023-04-16T16:00:31.279Z,12.85
2023-04-16T16:02:58.925Z,16.02
2023-04-16T16:05:26.458Z,12.00
2023-04-16T16:07:54.197Z,15.25
2023-04-16T16:10:21.693Z,13.77
2023-04-16T16:12:49.611Z,18.75
2023-04-16T16:15:17.613Z,14.60
2023-04-16T16:17:45.347Z,13.18
2023-04-16T16:20:13.103Z,14.10
2023-04-16T16:22:42.071Z,15.57
2023-04-16T16:25:10.488Z,14.23
2023-04-16T16:27:38.166Z,15.77
2023-04-16T16:30:07.474Z,16.17
2023-04-16T16:32:35.276Z,16.05
2023-04-16T16:35:02.692Z,17.02
2023-04-16T16:37:30.510Z,13.82
2023-04-16T16:39:57.849Z,16.02
2023-04-16T16:42:26.712Z,13.05
2023-04-16T16:44:56.022Z,15.60
2023-04-16T16:47:25.424Z,13.23
2023-04-16T16:49:54.884Z,13.00
2023-04-16T16:52:24.143Z,13.98
2023-04-16T16:54:53.255Z,13.15
2023-04-16T16:57:20.814Z,13.95
2023-04-16T16:59:48.664Z,15.40
2023-04-16T17:02:17.149Z,14.93
2023-04-16T17:04:45.151Z,15.90
2023-04-16T17:07:12.916Z,15.93
2023-04-16T17:09:40.629Z,18.58
2023-04-16T17:12:08.399Z,16.83
2023-04-16T17:14:36.113Z,16.10
2023-04-16T17:17:04.126Z,17.20
2023-04-16T17:19:31.495Z,15.27
2023-04-16T17:22:00.297Z,17.13
2023-04-16T17:24:27.548Z,14.15
2023-04-16T17:26:55.261Z,15.35
2023-04-16T17:29:26.345Z,16.80
2023-04-16T17:31:54.224Z,16.70
2023-04-16T17:34:22.116Z,17.55
2023-04-16T17:36:52.864Z,14.65
2023-04-16T17:39:21.200Z,15.77
2023-04-16T17:41:54.401Z,16.10
2023-04-16T17:44:23.303Z,14.48
2023-04-16T17:46:51.558Z,16.80
2023-04-16T17:49:19.326Z,15.95
2023-04-16T17:51:47.029Z,18.85
2023-04-16T17:54:14.792Z,20.60
2023-04-16T17:56:42.748Z,18.52
2023-04-16T17:59:10.244Z,21.55
2023-04-16T18:01:38.962Z,17.27
2023-04-16T18:04:07.214Z,19.83
2023-04-16T18:06:35.071Z,19.65
2023-04-16T18:09:05.047Z,18.05
2023-04-16T18:11:32.842Z,19.40
2023-04-16T18:14:01.024Z,17.17
2023-04-16T18:16:29.005Z,17.77
2023-04-16T18:18:57.019Z,15.25
2023-04-16T18:21:25.080Z,21.42
2023-04-16T18:23:52.479Z,21.00
2023-04-16T18:26:22.194Z,19.52
2023-04-16T18:28:51.510Z,18.60
2023-04-16T18:31:21.352Z,20.35
2023-04-16T18:33:57.606Z,21.23
2023-04-16T18:36:27.101Z,20.30
2023-04-16T18:39:15.766Z,19.67
2023-04-16T18:41:47.996Z,18.33
2023-04-16T18:44:17.883Z,21.50
2023-04-16T18:46:46.345Z,19.00
2023-04-16T18:49:14.108Z,22.17
2023-04-16T18:51:42.547Z,19.83
2023-04-16T18:54:10.310Z,24.63
2023-04-16T18:56:38.019Z,19.45
2023-04-16T18:59:05.632Z,18.02
2023-04-16T19:01:33.710Z,21.00
2023-04-16T19:04:01.806Z,23.80
2023-04-16T19:06:30.383Z,21.17
2023-04-16T19:08:57.770Z,20.83
2023-04-16T19:11:25.718Z,19.95
2023-04-16T19:13:53.089Z,24.52
2023-04-16T19:16:21.116Z,23.10
2023-04-16T19:18:48.716Z,23.98
2023-04-16T19:21:16.512Z,24.90
2023-04-16T19:23:43.822Z,25.83
2023-04-16T19:26:11.835Z,22.48
2023-04-16T19:28:39.851Z,23.45
2023-04-16T19:31:07.783Z,25.10
2023-04-16T19:33:35.908Z,25.10
2023-04-16T19:36:03.918Z,21.75
2023-04-16T19:38:34.026Z,25.45
2023-04-16T19:41:01.878Z,25.88
2023-04-16T19:43:31.133Z,24.05
2023-04-16T19:45:59.346Z,25.80
2023-04-16T19:48:27.319Z,30.27
2023-04-16T19:50:55.063Z,26.48
2023-04-16T19:53:22.887Z,28.63
2023-04-16T19:55:50.711Z,28.88
2023-04-16T19:58:17.994Z,25.10
2023-04-16T20:00:45.728Z,29.15
2023-04-16T20:03:13.357Z,27.98
2023-04-16T20:05:41.126Z,28.83
2023-04-16T20:08:08.897Z,29.70
2023-04-16T20:10:37.037Z,32.80
2023-04-16T20:13:06.698Z,31.35
2023-04-16T20:15:34.249Z,29.90
2023-04-16T20:18:01.831Z,33.95
2023-04-16T20:20:29.843Z,31.00
2023-04-16T20:22:57.413Z,32.85
2023-04-16T20:25:26.452Z,28.35
2023-04-16T20:27:54.634Z,33.92
2023-04-16T20:30:24.847Z,30.02
2023-04-16T20:32:52.189Z,31.98
2023-04-16T20:35:19.895Z,31.73
2023-04-16T20:37:47.414Z,33.80
2023-04-16T20:40:16.593Z,30.25
2023-04-16T20:42:46.475Z,31.85
2023-04-16T20:45:14.466Z,36.03
2023-04-16T20:47:43.741Z,31.10
2023-04-16T20:50:12.407Z,28.73
2023-04-16T20:52:39.749Z,33.00
2023-04-16T20:55:08.270Z,32.40
2023-04-16T20:57:35.624Z,32.17
2023-04-16T21:00:06.091Z,32.60
2023-04-16T21:02:33.871Z,34.50
2023-04-16T21:05:02.106Z,34.00
2023-04-16T21:07:29.574Z,33.22
2023-04-16T21:09:57.514Z,29.25
2023-04-16T21:12:24.857Z,30.00
2023-04-16T21:14:52.681Z,32.72
2023-04-16T21:17:20.077Z,37.17
2023-04-16T21:19:47.796Z,30.45
2023-04-16T21:22:15.587Z,33.28
2023-04-16T21:24:43.228Z,30.65
2023-04-16T21:27:10.639Z,35.63
2023-04-16T21:29:38.330Z,30.77
2023-04-16T21:32:05.985Z,29.30
2023-04-16T21:34:33.789Z,31.48
2023-04-16T21:37:01.157Z,30.80
2023-04-16T21:39:31.138Z,32.90
2023-04-16T21:41:58.378Z,30.70
2023-04-16T21:44:26.049Z,26.52
2023-04-16T21:46:53.625Z,28.52
2023-04-16T21:49:21.535Z,28.75
2023-04-16T21:51:50.416Z,31.25
2023-04-16T21:54:18.891Z,28.30
2023-04-16T21:56:46.440Z,29.00
2023-04-16T21:59:14.131Z,28.88
2023-04-16T22:01:41.789Z,29.42
2023-04-16T22:04:10.182Z,29.98
2023-04-16T22:06:37.771Z,29.10
2023-04-16T22:09:05.608Z,28.73
2023-04-16T22:11:32.838Z,27.30
2023-04-16T22:14:00.566Z,29.50
2023-04-16T22:16:27.908Z,26.65
2023-04-16T22:18:56.824Z,27.60
2023-04-16T22:21:25.294Z,29.17
2023-04-16T22:23:53.035Z,28.80
2023-04-16T22:26:20.782Z,26.33
2023-04-16T22:28:48.757Z,27.98
2023-04-16T22:31:16.148Z,27.08
2023-04-16T22:33:43.756Z,27.88
2023-04-16T22:36:11.238Z,26.38
2023-04-16T22:38:39.108Z,28.65
2023-04-16T22:41:06.680Z,27.38
2023-04-16T22:43:37.556Z,28.80
2023-04-16T22:46:06.829Z,25.67
2023-04-16T22:48:36.581Z,27.25
2023-04-16T22:51:07.794Z,23.63
2023-04-16T22:53:36.218Z,26.20
2023-04-16T22:56:04.327Z,30.60
2023-04-16T22:58:32.005Z,27.27
2023-04-16T23:00:59.781Z,30.45
2023-04-16T23:03:27.901Z,26.60
2023-04-16T23:05:55.371Z,24.38
2023-04-16T23:08:22.911Z,28.65
2023-04-16T23:10:50.653Z,30.05
2023-04-16T23:13:18.456Z,28.10
2023-04-16T23:15:47.549Z,26.92
2023-04-16T23:18:15.554Z,31.67
2023-04-16T23:20:43.007Z,26.35
2023-04-16T23:23:10.750Z,28.15
2023-04-16T23:25:38.112Z,28.20
2023-04-16T23:28:05.780Z,28.92
2023-04-16T23:30:33.184Z,28.95
2023-04-16T23:33:00.759Z,26.38
2023-04-16T23:35:28.110Z,28.58
2023-04-16T23:37:56.081Z,30.02
2023-04-16T23:40:23.313Z,28.88
2023-04-16T23:42:51.290Z,27.70
2023-04-16T23:45:18.669Z,28.15
2023-04-16T23:47:47.170Z,27.85
2023-04-16T23:50:14.710Z,29.77
2023-04-16T23:52:42.386Z,29.45
2023-04-16T23:55:09.857Z,28.55
2023-04-16T23:57:37.845Z,31.95
